Time;durP1;ratioP1;P1;durP2;ratioP2;P2;SDS_P1;SDS_P2;PMS_P1;PMS_P2;Temp;Humidity;BMP_temperature;BMP_pressure;BME280_temperature;BME280_humidity;BME280_pressure;Samples;Min_cycle;Max_cycle;Signal;HPM_P1;HPM_P2
2022/06/17 00:00:51;;;;;;;3.10;1.10;;;;;;;18.25;51.31;99292.75;4136504;28;20198;-53
2022/06/17 00:02:53;;;;;;;0.80;0.80;;;;;;;18.24;51.46;99293.88;4121070;28;20206;-53
2022/06/17 00:04:58;;;;;;;0.77;0.77;;;;;;;18.30;51.31;99294.69;4103581;28;20239;-53
2022/06/17 00:07:06;;;;;;;1.23;0.80;;;;;;;18.26;51.35;99299.97;4121556;28;20633;-55
2022/06/17 00:09:11;;;;;;;0.80;0.80;;;;;;;18.24;51.55;99290.28;4120263;28;20299;-54
2022/06/17 00:11:15;;;;;;;6.88;0.80;;;;;;;18.13;51.70;99295.00;4103909;28;20238;-53
2022/06/17 00:13:19;;;;;;;3.42;0.77;;;;;;;18.16;51.86;99300.00;4136514;28;20323;-55
2022/06/17 00:15:21;;;;;;;2.63;1.10;;;;;;;18.05;52.25;99292.00;4124713;28;20216;-53
2022/06/17 00:17:23;;;;;;;1.23;1.08;;;;;;;18.08;51.94;99289.50;4131123;28;20205;-54
2022/06/17 00:19:25;;;;;;;2.13;1.00;;;;;;;18.06;52.26;99293.66;4130146;28;20268;-54
2022/06/17 00:21:36;;;;;;;1.25;1.13;;;;;;;18.04;52.32;99290.34;4119521;28;20226;-52
2022/06/17 00:23:37;;;;;;;2.20;0.85;;;;;;;17.99;52.27;99284.78;4134553;28;20351;-53
2022/06/17 00:25:41;;;;;;;1.65;1.30;;;;;;;17.98;52.47;99291.44;4135863;28;20206;-53
2022/06/17 00:27:43;;;;;;;2.92;1.10;;;;;;;18.01;52.49;99290.88;4121467;28;20896;-54
2022/06/17 00:29:44;;;;;;;1.05;0.93;;;;;;;18.02;52.66;99292.53;4124861;28;20289;-54
2022/06/17 00:31:46;;;;;;;0.82;0.82;;;;;;;18.01;52.70;99286.19;4123855;28;20231;-53
2022/06/17 00:33:48;;;;;;;1.90;0.98;;;;;;;18.02;52.63;99284.22;4142008;28;20749;-53
2022/06/17 00:35:52;;;;;;;8.18;0.90;;;;;;;18.04;52.67;99280.06;4138618;28;20260;-54
2022/06/17 00:37:54;;;;;;;2.33;1.10;;;;;;;18.06;52.46;99282.56;4126870;28;20272;-55
2022/06/17 00:39:56;;;;;;;12.98;1.20;;;;;;;18.03;52.37;99277.56;4127476;28;20202;-53
2022/06/17 00:42:08;;;;;;;0.80;0.80;;;;;;;17.97;52.67;99278.69;4126200;28;20202;-54
2022/06/17 00:44:31;;;;;;;1.40;0.95;;;;;;;17.84;52.83;99268.19;4127067;28;20256;-55
2022/06/17 00:46:40;;;;;;;0.77;0.77;;;;;;;17.77;52.90;99273.16;4138097;28;20672;-55
2022/06/17 00:49:07;;;;;;;1.17;0.80;;;;;;;17.68;53.28;99274.84;4124354;28;20244;-54
2022/06/17 00:51:30;;;;;;;2.75;1.10;;;;;;;17.67;53.21;99273.19;4140586;28;20686;-53
2022/06/17 00:53:40;;;;;;;0.77;0.77;;;;;;;17.68;53.28;99266.53;4137742;28;20210;-52
2022/06/17 00:55:49;;;;;;;1.10;1.00;;;;;;;17.67;53.31;99256.56;4123106;28;20197;-52
2022/06/17 00:57:51;;;;;;;1.02;0.93;;;;;;;17.59;53.54;99276.50;4139122;28;20217;-55
2022/06/17 01:00:11;;;;;;;0.90;0.70;;;;;;;17.49;53.92;99270.97;4122133;28;20257;-53
2022/06/17 01:02:13;;;;;;;1.05;0.98;;;;;;;17.42;53.77;99275.94;4119620;28;20661;-53
2022/06/17 01:04:22;;;;;;;1.45;0.90;;;;;;;17.30;54.06;99280.88;4105494;28;20231;-56
2022/06/17 01:06:30;;;;;;;1.30;1.05;;;;;;;17.28;53.93;99294.16;4126471;28;20213;-53
2022/06/17 01:11:12;;;;;;;3.92;1.02;;;;;;;17.25;53.68;99286.41;4140483;28;20229;-53
2022/06/17 01:13:14;;;;;;;1.38;1.00;;;;;;;17.26;53.97;99283.34;4116430;28;20302;-52
2022/06/17 01:15:21;;;;;;;1.10;0.90;;;;;;;17.26;53.79;99285.31;4123383;28;20203;-52
2022/06/17 01:17:24;;;;;;;1.38;0.73;;;;;;;17.26;53.83;99279.78;4123313;28;20214;-55
2022/06/17 01:19:36;;;;;;;7.00;0.90;;;;;;;17.22;54.26;99275.88;4125577;28;20221;-52
2022/06/17 01:21:47;;;;;;;1.10;1.00;;;;;;;17.12;54.32;99270.34;4125802;28;20656;-52
2022/06/17 01:23:50;;;;;;;2.80;0.90;;;;;;;17.04;54.57;99268.09;4111235;28;20618;-52
2022/06/17 01:25:53;;;;;;;1.98;0.90;;;;;;;16.99;54.73;99257.84;4121972;28;20230;-53
2022/06/17 01:28:03;;;;;;;1.15;1.00;;;;;;;17.00;54.81;99261.47;4128360;28;20210;-53
2022/06/17 01:30:07;;;;;;;1.23;0.98;;;;;;;16.97;54.78;99253.69;4127956;28;20578;-53
2022/06/17 01:32:10;;;;;;;0.85;0.85;;;;;;;16.96;54.69;99257.56;4123393;28;20316;-52
2022/06/17 01:34:13;;;;;;;1.13;1.02;;;;;;;16.92;54.78;99253.72;4105938;28;20332;-52
2022/06/17 01:36:18;;;;;;;1.63;0.95;;;;;;;16.83;55.05;99258.09;4138902;28;20217;-53
2022/06/17 01:38:22;;;;;;;4.13;0.80;;;;;;;16.83;55.04;99273.88;4118816;28;20238;-53
2022/06/17 01:40:28;;;;;;;0.98;0.98;;;;;;;16.79;55.02;99276.34;4122436;28;20281;-53
2022/06/17 01:42:30;;;;;;;1.10;0.80;;;;;;;16.74;55.34;99284.59;4138570;28;20215;-53
2022/06/17 01:44:33;;;;;;;1.25;1.10;;;;;;;16.71;55.38;99274.09;4137369;28;20229;-53
2022/06/17 01:46:39;;;;;;;1.20;1.08;;;;;;;16.71;55.52;99285.16;4138114;28;20214;-52
2022/06/17 01:48:45;;;;;;;0.90;0.70;;;;;;;16.74;55.54;99281.84;4136941;28;20577;-53
2022/06/17 01:50:48;;;;;;;0.80;0.80;;;;;;;16.75;55.86;99274.41;4137926;28;20587;-53
2022/06/17 01:52:59;;;;;;;1.17;1.10;;;;;;;16.68;55.81;99274.63;4121801;28;20265;-54
2022/06/17 01:55:03;;;;;;;2.38;1.13;;;;;;;16.59;56.19;99279.03;4133840;28;20368;-53
2022/06/17 01:57:07;;;;;;;1.60;1.15;;;;;;;16.51;56.50;99276.78;4136353;28;20283;-54
2022/06/17 01:59:18;;;;;;;1.15;1.00;;;;;;;16.49;56.64;99276.19;4136655;28;20209;-54
2022/06/17 02:01:22;;;;;;;1.20;0.98;;;;;;;16.48;56.42;99279.22;4134045;28;20201;-53
2022/06/17 02:03:27;;;;;;;5.07;1.27;;;;;;;16.47;56.36;99272.88;4136879;28;20579;-53
2022/06/17 02:05:30;;;;;;;1.13;0.90;;;;;;;16.46;56.20;99275.91;4124294;28;20224;-54
2022/06/17 02:07:35;;;;;;;1.20;0.93;;;;;;;16.42;56.33;99272.84;4118399;28;20213;-54
2022/06/17 02:09:37;;;;;;;1.42;0.80;;;;;;;16.42;56.25;99281.16;4128010;28;20222;-53
2022/06/17 02:11:42;;;;;;;1.30;1.10;;;;;;;16.45;56.32;99274.25;4123423;28;20226;-55
2022/06/17 02:13:43;;;;;;;1.00;0.90;;;;;;;16.51;56.38;99287.84;4122300;28;20230;-55
2022/06/17 02:15:48;;;;;;;2.67;0.98;;;;;;;16.51;56.45;99282.31;4135540;28;20217;-55
2022/06/17 02:17:50;;;;;;;1.05;0.88;;;;;;;16.44;56.65;99281.69;4135968;28;20234;-53
2022/06/17 02:19:52;;;;;;;1.38;1.10;;;;;;;16.32;57.08;99278.31;4122882;28;20257;-53
2022/06/17 02:22:13;;;;;;;1.15;1.00;;;;;;;16.27;57.22;99277.44;4125799;28;20206;-53
2022/06/17 02:24:17;;;;;;;1.63;1.33;;;;;;;16.20;57.58;99276.84;4125607;28;20765;-54
2022/06/17 02:26:20;;;;;;;3.90;1.45;;;;;;;16.17;57.39;99277.41;4117374;28;20694;-54
2022/06/17 02:28:22;;;;;;;1.60;0.90;;;;;;;16.20;57.48;99274.09;4139119;28;20790;-53
2022/06/17 02:30:24;;;;;;;1.10;1.00;;;;;;;16.24;57.37;99278.81;4125412;28;20660;-54
2022/06/17 02:32:26;;;;;;;3.00;1.63;;;;;;;16.30;57.35;99287.97;4124783;28;20226;-55
2022/06/17 02:34:28;;;;;;;1.15;1.05;;;;;;;16.33;57.22;99281.91;4109834;28;20726;-54
2022/06/17 02:36:53;;;;;;;1.15;0.88;;;;;;;16.26;57.29;99293.19;4123972;28;20238;-55
2022/06/17 02:38:55;;;;;;;2.38;1.02;;;;;;;16.19;57.76;99284.31;4139042;28;20233;-55
2022/06/17 02:41:00;;;;;;;0.93;0.90;;;;;;;16.08;57.69;99277.06;4106601;28;20203;-54
2022/06/17 02:43:04;;;;;;;1.73;1.00;;;;;;;15.99;57.90;99280.59;4123320;28;20613;-56
2022/06/17 02:45:16;;;;;;;1.30;1.10;;;;;;;15.95;58.07;99282.25;4124098;28;20624;-54
2022/06/17 02:47:18;;;;;;;1.20;1.05;;;;;;;15.89;58.42;99283.28;4124876;28;20215;-54
2022/06/17 02:49:22;;;;;;;1.63;1.08;;;;;;;15.85;58.57;99285.75;4120843;28;20202;-54
2022/06/17 02:51:26;;;;;;;1.35;1.02;;;;;;;15.83;58.33;99287.94;4120739;28;20336;-55
2022/06/17 02:53:33;;;;;;;2.65;1.10;;;;;;;15.83;58.36;99298.97;4118727;28;20218;-53
2022/06/17 02:55:39;;;;;;;0.80;0.80;;;;;;;15.87;58.25;99289.06;4127476;28;20631;-54
2022/06/17 02:57:45;;;;;;;2.15;1.20;;;;;;;15.87;58.43;99294.59;4126140;28;20198;-54
2022/06/17 02:59:56;;;;;;;1.00;0.90;;;;;;;15.81;58.49;99283.75;4139480;28;20617;-55
2022/06/17 03:02:03;;;;;;;1.02;0.98;;;;;;;15.78;58.55;99285.16;4123526;28;20194;-55
2022/06/17 03:04:11;;;;;;;1.20;1.10;;;;;;;15.78;58.55;99285.16;4104374;28;20277;-52
2022/06/17 03:06:29;;;;;;;1.25;1.10;;;;;;;15.77;58.75;99288.16;4121304;28;20285;-55
2022/06/17 03:08:32;;;;;;;1.30;1.20;;;;;;;15.72;58.66;99296.41;4138891;28;20233;-54
2022/06/17 03:10:36;;;;;;;2.38;1.13;;;;;;;15.71;58.79;99298.31;4123278;28;20276;-55
2022/06/17 03:12:38;;;;;;;2.03;1.00;;;;;;;15.75;58.71;99307.75;4122905;28;20234;-53
2022/06/17 03:14:42;;;;;;;1.30;1.20;;;;;;;15.76;58.58;99306.66;4135676;28;20279;-53
2022/06/17 03:16:44;;;;;;;1.77;1.13;;;;;;;15.71;58.93;99300.25;4133882;28;20209;-53
2022/06/17 03:18:47;;;;;;;0.98;0.95;;;;;;;15.61;58.95;99303.78;4123327;28;20639;-53
2022/06/17 03:20:49;;;;;;;1.13;1.02;;;;;;;15.56;59.02;99309.22;4120693;28;20206;-53
2022/06/17 03:22:55;;;;;;;1.95;1.40;;;;;;;15.53;59.20;99312.53;4138215;28;20835;-54
2022/06/17 03:25:07;;;;;;;1.10;1.00;;;;;;;15.54;59.03;99316.94;4134441;28;20261;-54
2022/06/17 03:27:14;;;;;;;1.13;1.00;;;;;;;15.53;59.29;99312.53;4137389;28;20220;-53
2022/06/17 03:29:18;;;;;;;1.23;1.00;;;;;;;15.50;59.49;99315.81;4122945;28;20210;-53
2022/06/17 03:31:37;;;;;;;1.00;1.00;;;;;;;15.49;59.52;99325.19;4122883;28;20217;-54
2022/06/17 03:34:01;;;;;;;1.10;1.00;;;;;;;15.44;59.47;99325.13;4124460;28;20301;-54
2022/06/17 03:36:23;;;;;;;1.40;1.30;;;;;;;15.42;59.88;99329.25;4136963;28;20256;-54
2022/06/17 03:38:27;;;;;;;0.90;0.90;;;;;;;15.43;59.77;99323.47;4124708;28;20233;-53
2022/06/17 03:40:34;;;;;;;1.50;0.93;;;;;;;15.40;59.60;99321.25;4123520;28;20214;-54
2022/06/17 03:42:42;;;;;;;1.33;1.20;;;;;;;15.40;59.75;99326.75;4137505;28;20209;-54
2022/06/17 03:44:50;;;;;;;1.50;1.17;;;;;;;15.40;59.59;99320.41;4103864;28;20311;-54
2022/06/17 03:46:53;;;;;;;1.98;1.30;;;;;;;15.34;59.50;99322.28;4125393;28;20815;-55
2022/06/17 03:49:09;;;;;;;1.73;1.10;;;;;;;15.29;59.83;99324.94;4105670;28;20207;-53
2022/06/17 03:51:15;;;;;;;3.22;1.45;;;;;;;15.30;59.87;99321.09;4107956;28;20210;-54
2022/06/17 03:53:32;;;;;;;2.08;1.20;;;;;;;15.26;59.86;99311.69;4139173;28;20773;-55
2022/06/17 03:55:35;;;;;;;1.10;1.10;;;;;;;15.14;60.15;99311.00;4124668;28;20210;-53
2022/06/17 03:57:37;;;;;;;1.20;1.10;;;;;;;15.15;60.02;99315.44;4124723;28;20210;-54
2022/06/17 03:59:42;;;;;;;1.23;1.13;;;;;;;15.20;59.91;99321.00;4121311;28;20239;-53
2022/06/17 04:01:52;;;;;;;1.38;1.13;;;;;;;15.18;59.83;99323.19;4120445;28;20202;-53
2022/06/17 04:03:58;;;;;;;1.70;1.58;;;;;;;15.20;60.22;99321.00;4139106;28;20228;-54
2022/06/17 04:06:05;;;;;;;1.40;1.30;;;;;;;15.25;60.17;99334.00;4125446;28;20214;-55
2022/06/17 04:08:10;;;;;;;3.50;1.25;;;;;;;15.29;60.10;99335.97;4137389;28;20729;-53
2022/06/17 04:10:16;;;;;;;1.40;1.17;;;;;;;15.36;59.92;99342.16;4120150;28;20221;-53
2022/06/17 04:12:25;;;;;;;3.60;1.08;;;;;;;15.39;59.84;99341.66;4125296;28;20278;-53
2022/06/17 04:14:50;;;;;;;1.85;1.08;;;;;;;15.44;59.74;99344.44;4137980;28;20236;-54
2022/06/17 04:17:07;;;;;;;2.42;1.35;;;;;;;15.48;59.78;99340.06;4120647;28;20214;-53
2022/06/17 04:19:16;;;;;;;1.50;1.33;;;;;;;15.52;59.76;99341.22;4135963;28;20204;-53
2022/06/17 04:21:17;;;;;;;1.55;1.30;;;;;;;15.52;59.88;99343.97;4137755;28;20217;-54
2022/06/17 04:23:26;;;;;;;1.10;1.00;;;;;;;15.54;60.04;99344.53;4121850;28;20257;-52
2022/06/17 04:25:51;;;;;;;1.13;1.10;;;;;;;15.57;59.97;99348.72;4138649;28;20213;-52
2022/06/17 04:27:56;;;;;;;1.75;1.65;;;;;;;15.56;60.23;99350.63;4124764;28;20259;-54
2022/06/17 04:29:58;;;;;;;1.27;1.10;;;;;;;15.52;60.43;99352.25;4135418;28;20254;-53
2022/06/17 04:32:06;;;;;;;1.52;1.27;;;;;;;15.53;60.48;99348.41;4119745;28;20206;-53
2022/06/17 04:34:15;;;;;;;1.30;1.20;;;;;;;15.55;60.79;99350.91;4120483;28;20243;-53
2022/06/17 04:36:22;;;;;;;1.58;1.35;;;;;;;15.56;60.70;99336.00;4135923;28;20205;-56
2022/06/17 04:38:24;;;;;;;1.30;1.20;;;;;;;15.57;60.68;99343.19;4137592;28;20205;-53
2022/06/17 04:40:42;;;;;;;1.38;1.20;;;;;;;15.54;60.52;99349.22;4136824;28;20206;-54
2022/06/17 04:42:44;;;;;;;2.50;1.30;;;;;;;15.57;60.55;99348.72;4134218;28;20718;-54
2022/06/17 04:44:45;;;;;;;1.50;1.15;;;;;;;15.59;60.55;99355.63;4109827;28;20277;-54
2022/06/17 04:47:09;;;;;;;2.35;1.50;;;;;;;15.67;60.83;99357.91;4135353;28;20209;-54
2022/06/17 04:49:19;;;;;;;8.07;1.38;;;;;;;15.72;60.58;99359.88;4103057;28;20325;-54
2022/06/17 04:51:20;;;;;;;1.40;1.05;;;;;;;15.78;60.28;99361.59;4122697;28;20676;-54
2022/06/17 04:53:22;;;;;;;1.55;1.20;;;;;;;15.84;60.17;99361.34;4135374;28;20244;-54
2022/06/17 04:55:28;;;;;;;1.63;1.30;;;;;;;15.89;59.99;99358.66;4123212;28;20237;-54
2022/06/17 04:57:30;;;;;;;4.22;1.38;;;;;;;15.94;59.94;99358.69;4120921;28;20277;-55
2022/06/17 04:59:40;;;;;;;1.30;1.10;;;;;;;15.99;59.73;99363.41;4120656;28;20209;-54
2022/06/17 05:01:42;;;;;;;1.50;1.40;;;;;;;16.06;59.71;99370.38;4122366;28;20693;-54
2022/06/17 05:03:44;;;;;;;1.75;1.10;;;;;;;16.09;59.65;99364.31;4119878;28;20704;-54
2022/06/17 05:05:46;;;;;;;1.33;1.10;;;;;;;16.10;59.58;99371.50;4122030;28;20668;-53
2022/06/17 05:07:50;;;;;;;2.75;1.05;;;;;;;16.10;59.36;99368.75;4139698;28;20209;-53
2022/06/17 05:10:08;;;;;;;2.55;1.27;;;;;;;15.98;60.75;99368.13;4127459;28;20210;-53
2022/06/17 05:12:20;;;;;;;1.35;1.00;;;;;;;15.96;60.61;99373.06;4122354;28;20221;-53
2022/06/17 05:14:28;;;;;;;2.75;1.13;;;;;;;16.08;60.29;99362.66;4121721;28;20242;-54
2022/06/17 05:16:29;;;;;;;1.13;1.02;;;;;;;16.06;60.31;99367.63;4123496;28;20260;-54
2022/06/17 05:18:31;;;;;;;1.35;1.25;;;;;;;15.92;60.30;99371.94;4132624;28;20280;-54
2022/06/17 05:20:33;;;;;;;1.88;0.98;;;;;;;15.85;60.50;99368.56;4137230;28;20647;-54
2022/06/17 05:22:42;;;;;;;1.60;1.50;;;;;;;15.95;59.92;99376.91;4123259;28;20861;-53
2022/06/17 05:24:43;;;;;;;1.45;1.08;;;;;;;16.03;59.50;99370.91;4122248;28;20861;-53
2022/06/17 05:26:45;;;;;;;2.53;1.27;;;;;;;16.09;59.28;99375.38;4125846;28;20677;-54
2022/06/17 05:28:47;;;;;;;2.63;1.20;;;;;;;16.20;59.29;99388.16;4126646;28;20214;-53
2022/06/17 05:30:51;;;;;;;2.40;0.95;;;;;;;16.32;58.92;99379.69;4126745;28;20213;-53
2022/06/17 05:32:56;;;;;;;4.57;1.30;;;;;;;16.43;58.63;99387.81;4111928;28;20214;-54
2022/06/17 05:34:58;;;;;;;1.42;1.33;;;;;;;16.58;58.58;99378.78;4144181;28;20233;-53
2022/06/17 05:37:00;;;;;;;1.80;1.05;;;;;;;16.67;58.09;99378.00;4124351;28;20210;-53
2022/06/17 05:39:03;;;;;;;1.38;1.17;;;;;;;16.79;58.28;99386.94;4125625;28;21115;-54
2022/06/17 05:41:06;;;;;;;1.25;1.13;;;;;;;16.82;59.17;99389.13;4121833;28;20221;-55
2022/06/17 05:43:09;;;;;;;13.32;1.30;;;;;;;16.84;60.14;99397.97;4107107;28;20677;-54
2022/06/17 05:45:18;;;;;;;10.65;1.88;;;;;;;16.90;60.17;99394.16;4120357;28;20948;-54
2022/06/17 05:47:20;;;;;;;2.80;1.25;;;;;;;16.95;60.01;99393.38;4114913;28;20240;-53
2022/06/17 05:49:21;;;;;;;3.60;1.17;;;;;;;17.13;60.08;99399.25;4123127;28;20214;-54
2022/06/17 05:51:23;;;;;;;1.88;1.10;;;;;;;17.30;59.06;99400.69;4122503;28;20238;-52
2022/06/17 05:53:25;;;;;;;2.35;1.30;;;;;;;17.51;58.62;99396.91;4121321;28;20233;-54
2022/06/17 05:55:29;;;;;;;1.20;1.10;;;;;;;17.63;57.69;99391.09;4121223;28;20597;-54
2022/06/17 05:57:31;;;;;;;1.70;1.13;;;;;;;17.63;58.08;99389.19;4136525;28;20209;-54
2022/06/17 05:59:33;;;;;;;3.75;1.20;;;;;;;17.96;57.57;99385.06;4137813;28;20209;-55
2022/06/17 06:01:34;;;;;;;2.30;1.02;;;;;;;18.04;57.42;99395.59;4118759;28;20265;-56
2022/06/17 06:03:36;;;;;;;4.03;1.20;;;;;;;18.20;57.33;99389.78;4136842;28;20201;-53
2022/06/17 06:05:38;;;;;;;1.52;1.00;;;;;;;18.52;56.27;99389.50;4133478;28;21242;-56
2022/06/17 06:07:40;;;;;;;2.20;1.00;;;;;;;18.82;55.63;99394.94;4138750;28;20276;-53
2022/06/17 06:09:41;;;;;;;5.13;1.10;;;;;;;19.09;55.19;99393.47;4135253;28;20585;-54
2022/06/17 06:11:43;;;;;;;2.10;1.23;;;;;;;19.29;54.50;99393.41;4119384;28;20209;-55
2022/06/17 06:13:45;;;;;;;1.27;0.90;;;;;;;19.41;54.29;99393.06;4114694;28;20241;-54
2022/06/17 06:15:49;;;;;;;5.53;1.38;;;;;;;19.54;53.73;99390.50;4135346;28;20667;-53
2022/06/17 06:17:51;;;;;;;1.40;0.70;;;;;;;19.63;53.77;99399.91;4134706;28;20293;-56
2022/06/17 06:19:53;;;;;;;4.10;1.58;;;;;;;19.72;53.91;99398.16;4121915;28;20740;-54
2022/06/17 06:21:54;;;;;;;3.90;1.02;;;;;;;19.80;53.49;99394.78;4136152;28;20228;-55
2022/06/17 06:23:56;;;;;;;1.30;1.02;;;;;;;19.90;52.93;99391.13;4120923;28;20226;-55
2022/06/17 06:25:58;;;;;;;2.60;1.00;;;;;;;19.84;52.96;99386.72;4121071;28;20660;-54
2022/06/17 06:28:11;;;;;;;2.03;0.90;;;;;;;19.89;53.22;99387.50;4119322;28;20250;-55
2022/06/17 06:30:22;;;;;;;1.70;1.10;;;;;;;20.02;52.83;99386.00;4117973;28;20627;-55
2022/06/17 06:32:24;;;;;;;2.58;1.25;;;;;;;19.97;52.80;99380.50;4130664;28;20213;-56
2022/06/17 06:34:26;;;;;;;3.05;1.30;;;;;;;20.03;52.75;99380.16;4131127;28;20225;-55
2022/06/17 06:36:28;;;;;;;1.48;1.05;;;;;;;20.18;52.75;99384.81;4136233;28;20272;-53
2022/06/17 06:38:30;;;;;;;2.00;0.90;;;;;;;20.30;52.48;99388.03;4131041;28;20209;-52
2022/06/17 06:40:32;;;;;;;4.57;1.55;;;;;;;20.26;51.60;99389.72;4106869;28;20234;-57
2022/06/17 06:42:34;;;;;;;2.28;1.08;;;;;;;20.48;52.17;99401.19;4120437;28;20210;-52
2022/06/17 06:44:36;;;;;;;1.80;1.10;;;;;;;20.59;52.10;99391.66;4121798;28;20225;-54
2022/06/17 06:46:38;;;;;;;1.55;1.10;;;;;;;20.57;50.94;99393.91;4122376;28;20244;-52
2022/06/17 06:48:40;;;;;;;1.60;1.05;;;;;;;20.76;50.83;99406.75;4118654;28;21062;-53
2022/06/17 06:50:41;;;;;;;4.82;1.38;;;;;;;20.71;51.76;99406.00;4115860;28;20214;-63
2022/06/17 06:52:46;;;;;;;3.28;0.98;;;;;;;20.56;50.19;99395.00;4122345;28;20629;-59
2022/06/17 06:54:49;;;;;;;0.85;0.82;;;;;;;20.41;50.36;99396.00;4126659;28;20226;-58
2022/06/17 06:56:50;;;;;;;5.88;0.90;;;;;;;20.17;51.32;99394.28;4122255;28;20210;-58
2022/06/17 06:59:13;;;;;;;1.77;1.30;;;;;;;20.28;50.53;99393.03;4117008;28;20630;-59
2022/06/17 07:01:14;;;;;;;8.48;0.85;;;;;;;20.14;50.90;99389.28;4122990;28;20213;-58
2022/06/17 07:03:17;;;;;;;1.02;0.90;;;;;;;20.14;51.29;99389.28;4124864;28;20202;-60
2022/06/17 07:05:20;;;;;;;1.95;1.25;;;;;;;20.37;51.70;99388.53;4132875;28;20700;-55
2022/06/17 07:07:21;;;;;;;2.22;1.92;;;;;;;20.60;51.47;99387.72;4123302;28;20217;-55
2022/06/17 07:09:24;;;;;;;1.35;1.00;;;;;;;20.93;50.38;99386.84;4118265;28;20202;-55
2022/06/17 07:11:26;;;;;;;2.83;1.20;;;;;;;21.04;49.69;99380.88;4123278;28;20667;-55
2022/06/17 07:13:29;;;;;;;1.75;1.63;;;;;;;21.07;49.31;99382.22;4120005;28;20738;-54
2022/06/17 07:15:30;;;;;;;1.80;1.30;;;;;;;21.30;49.13;99375.81;4124955;28;20752;-53
2022/06/17 07:17:32;;;;;;;2.35;1.20;;;;;;;21.27;49.75;99376.41;4116801;28;20210;-54
2022/06/17 07:19:34;;;;;;;3.85;1.45;;;;;;;21.42;49.08;99376.19;4121281;28;20240;-55
2022/06/17 07:21:36;;;;;;;1.55;1.10;;;;;;;21.53;49.10;99381.34;4119106;28;20209;-55
2022/06/17 07:23:43;;;;;;;4.55;1.00;;;;;;;21.87;49.21;99381.13;4120900;28;20225;-53
2022/06/17 07:25:46;;;;;;;13.90;1.85;;;;;;;21.87;48.91;99383.94;4117873;28;20212;-56
2022/06/17 07:27:47;;;;;;;2.92;1.38;;;;;;;21.95;48.78;99377.66;4104494;28;20675;-55
2022/06/17 07:29:49;;;;;;;1.60;1.13;;;;;;;22.19;48.29;99378.41;4116363;28;20206;-55
2022/06/17 07:31:51;;;;;;;1.55;1.02;;;;;;;22.27;47.37;99372.13;4120447;28;20595;-53
2022/06/17 07:33:52;;;;;;;3.72;1.45;;;;;;;22.33;48.01;99376.47;4120974;28;20234;-55
2022/06/17 07:35:57;;;;;;;3.92;1.25;;;;;;;22.54;48.28;99381.44;4138475;28;20205;-55
2022/06/17 07:40:19;;;;;;;3.38;1.40;;;;;;;22.48;47.70;99382.66;4139597;28;20235;-54
2022/06/17 07:42:26;;;;;;;2.05;1.02;;;;;;;22.73;48.55;99378.56;4125439;28;20205;-53
2022/06/17 07:44:28;;;;;;;1.73;0.98;;;;;;;22.85;46.80;99384.47;4127478;28;20219;-54
2022/06/17 07:46:30;;;;;;;2.88;1.15;;;;;;;23.11;45.56;99391.22;4138292;28;20243;-54
2022/06/17 07:48:33;;;;;;;3.80;0.80;;;;;;;23.27;46.38;99389.78;4125713;28;20586;-53
2022/06/17 07:50:34;;;;;;;1.13;0.82;;;;;;;22.99;45.32;99383.34;4121772;28;20209;-53
2022/06/17 07:52:36;;;;;;;1.63;0.95;;;;;;;23.06;44.62;99374.56;4128878;28;20213;-53
2022/06/17 07:54:38;;;;;;;2.67;0.95;;;;;;;22.79;44.43;99371.75;4123678;28;20229;-54
2022/06/17 07:56:40;;;;;;;1.92;0.73;;;;;;;23.29;45.41;99382.75;4123792;28;20217;-55
2022/06/17 07:58:43;;;;;;;2.75;1.38;;;;;;;23.07;43.66;99384.59;4124826;28;20260;-53
2022/06/17 08:00:45;;;;;;;2.45;0.60;;;;;;;23.67;44.35;99383.31;4140638;28;20287;-52
2022/06/17 08:02:47;;;;;;;4.47;1.00;;;;;;;23.53;41.48;99382.50;4120601;28;20210;-54
2022/06/17 08:04:49;;;;;;;1.10;0.88;;;;;;;23.44;42.35;99373.22;4120879;28;20701;-55
2022/06/17 08:06:51;;;;;;;8.13;1.20;;;;;;;23.15;41.66;99370.72;4120248;28;20257;-53
2022/06/17 08:08:59;;;;;;;4.63;0.73;;;;;;;23.19;42.01;99362.59;4122049;28;20212;-54
2022/06/17 08:11:01;;;;;;;1.63;1.10;;;;;;;23.59;42.77;99364.50;4117994;28;20249;-54
2022/06/17 08:13:05;;;;;;;1.65;1.50;;;;;;;23.80;41.09;99372.09;4121246;28;20212;-55
2022/06/17 08:15:07;;;;;;;2.33;0.80;;;;;;;23.50;41.62;99367.19;4137486;28;20263;-54
2022/06/17 08:17:16;;;;;;;4.97;0.80;;;;;;;23.67;42.55;99366.53;4137457;28;20208;-53
2022/06/17 08:19:19;;;;;;;2.67;0.90;;;;;;;23.88;42.16;99368.59;4119668;28;20208;-55
2022/06/17 08:21:20;;;;;;;0.90;0.90;;;;;;;24.12;41.12;99363.53;4139501;28;20205;-56
2022/06/17 08:23:42;;;;;;;2.15;0.80;;;;;;;23.76;41.29;99359.88;4139205;28;20731;-54
2022/06/17 08:25:44;;;;;;;2.03;0.77;;;;;;;24.10;42.89;99351.81;4141079;28;20304;-54
2022/06/17 08:27:49;;;;;;;2.00;1.10;;;;;;;23.58;42.12;99349.69;4119486;28;20217;-54
2022/06/17 08:29:51;;;;;;;2.10;1.00;;;;;;;23.91;42.57;99350.34;4121519;28;20208;-55
2022/06/17 08:31:53;;;;;;;0.93;0.70;;;;;;;24.33;42.59;99350.69;4122561;28;20664;-56
2022/06/17 08:33:55;;;;;;;3.17;1.00;;;;;;;24.70;42.57;99347.44;4136508;28;20236;-56
2022/06/17 08:36:12;;;;;;;2.10;1.33;;;;;;;24.79;41.42;99360.34;4119135;28;20209;-54
2022/06/17 08:38:17;;;;;;;2.08;1.00;;;;;;;24.85;41.15;99356.25;4116013;28;20670;-54
2022/06/17 08:40:40;;;;;;;1.92;1.00;;;;;;;24.51;41.53;99344.84;4113645;28;20201;-56
2022/06/17 08:42:53;;;;;;;1.42;0.68;;;;;;;24.90;41.24;99353.34;4124872;28;20297;-54
2022/06/17 08:45:08;;;;;;;1.67;1.00;;;;;;;24.86;39.12;99357.91;4113565;28;20229;-55
2022/06/17 08:47:29;;;;;;;2.20;0.63;;;;;;;25.32;39.00;99361.09;4127954;28;20208;-55
2022/06/17 08:49:52;;;;;;;3.17;0.70;;;;;;;25.45;38.65;99364.94;4132466;28;20207;-54
2022/06/17 08:52:13;;;;;;;2.75;1.45;;;;;;;25.65;39.31;99361.50;4118206;28;20340;-56
2022/06/17 08:54:24;;;;;;;1.23;0.50;;;;;;;25.79;38.86;99359.38;4121216;28;20233;-55
2022/06/17 08:56:55;;;;;;;2.08;0.88;;;;;;;25.93;38.31;99365.69;4136788;28;20248;-54
2022/06/17 08:59:00;;;;;;;1.75;1.13;;;;;;;25.25;37.12;99363.53;4115525;28;20213;-55
2022/06/17 09:01:19;;;;;;;1.13;0.50;;;;;;;25.56;38.07;99367.09;4123605;28;20309;-54
2022/06/17 09:03:52;;;;;;;1.45;0.70;;;;;;;25.67;38.19;99374.00;4135526;28;22036;-55
2022/06/17 09:06:30;;;;;;;0.82;0.70;;;;;;;25.58;38.20;99376.00;4134103;28;20592;-54
2022/06/17 09:09:02;;;;;;;1.67;0.88;;;;;;;25.68;39.24;99375.69;4135509;28;20256;-54
2022/06/17 09:11:19;;;;;;;7.63;1.02;;;;;;;25.59;38.05;99382.44;4121155;28;20214;-54
2022/06/17 09:13:42;;;;;;;2.78;1.20;;;;;;;26.21;38.48;99384.66;4119305;28;20206;-56
2022/06/17 09:16:14;;;;;;;8.50;0.75;;;;;;;26.32;39.09;99385.97;4114544;28;20193;-55
2022/06/17 09:18:24;;;;;;;1.05;0.65;;;;;;;26.96;39.00;99373.63;4086725;28;20211;-55
2022/06/17 09:20:47;;;;;;;5.22;0.85;;;;;;;26.61;37.60;99383.31;4119919;28;20210;-56
2022/06/17 09:22:58;;;;;;;0.90;0.55;;;;;;;26.55;35.36;99379.03;4136424;28;20613;-53
2022/06/17 09:25:05;;;;;;;0.70;0.55;;;;;;;25.94;33.28;99382.16;4134268;28;20849;-54
2022/06/17 09:27:20;;;;;;;1.67;0.57;;;;;;;25.90;33.67;99381.19;4122637;28;20213;-55
2022/06/17 09:29:30;;;;;;;0.60;0.60;;;;;;;25.92;34.66;99381.66;4125771;28;20217;-54
2022/06/17 09:31:48;;;;;;;1.95;0.65;;;;;;;25.85;33.87;99372.88;4139919;28;20213;-55
2022/06/17 09:34:11;;;;;;;0.57;0.57;;;;;;;25.97;35.50;99378.72;4129879;28;20394;-55
2022/06/17 09:36:21;;;;;;;1.35;0.70;;;;;;;25.98;36.64;99374.75;4121661;28;20887;-54
2022/06/17 09:38:30;;;;;;;0.98;0.60;;;;;;;26.45;36.91;99368.09;4124631;28;20205;-54
2022/06/17 09:40:45;;;;;;;2.33;0.88;;;;;;;26.48;34.91;99367.47;4120396;28;20276;-55
2022/06/17 09:42:53;;;;;;;1.83;0.60;;;;;;;26.70;35.81;99370.06;4118771;28;20885;-53
2022/06/17 09:44:58;;;;;;;1.58;0.75;;;;;;;27.06;35.74;99359.19;4121555;28;20232;-56
2022/06/17 09:47:05;;;;;;;1.75;0.70;;;;;;;27.32;35.04;99362.72;4117880;28;20602;-54
2022/06/17 09:49:29;;;;;;;0.70;0.60;;;;;;;27.35;34.48;99367.69;4103256;28;20222;-57
2022/06/17 09:51:41;;;;;;;0.60;0.50;;;;;;;27.09;34.32;99361.34;4134552;28;20607;-56
2022/06/17 09:54:00;;;;;;;1.27;0.50;;;;;;;27.57;35.71;99361.75;4118863;28;20296;-53
2022/06/17 09:56:09;;;;;;;0.60;0.50;;;;;;;27.66;34.26;99356.91;4120984;28;20206;-53
2022/06/17 09:58:41;;;;;;;0.73;0.57;;;;;;;27.15;34.52;99359.19;4117612;28;20201;-54
2022/06/17 10:00:47;;;;;;;0.90;0.60;;;;;;;26.82;34.28;99350.53;4111278;28;20213;-53
2022/06/17 10:02:52;;;;;;;0.95;0.45;;;;;;;27.23;34.94;99350.72;4121442;28;20206;-53